treasuredata.com alexa rank chart, treasuredata.com alexa rank daily changes

treasuredata.com alexa rank chart, treasuredata.com alexa rank daily changes

treasuredata.com
Actual rank:
40 498

RANK HISTORY

Date Rank Diff
2017/06/25 40 498 -364
2017/06/24 40 862 -1 168
2017/06/23 42 030 -1 317
2017/06/22 43 347 -1 209
2017/06/21 44 556 -601
2017/06/20 45 157 +197
2017/06/19 44 960 +705
2017/06/18 44 255 -380
2017/06/17 44 635 -272
2017/06/16 44 907 -586
2017/06/15 45 493 -1 280
2017/06/14 46 773 +1 174
2017/06/13 45 599 +1 354
2017/06/12 44 245 +1 051
2017/06/11 43 194 -595
2017/06/10 43 789 -629
2017/06/09 44 418 -1 027
2017/06/08 45 445 -1 256
2017/06/07 46 701 +531
2017/06/06 46 170 +256
2017/06/05 45 914 -242
2017/06/04 46 156 -1 205
2017/06/03 47 361 -890
2017/06/02 48 251 -2 015
2017/06/01 50 266 -1 078
2017/05/31 51 344 -2 584
2017/05/30 53 928 +629
2017/05/29 53 299 +1 543
2017/05/28 51 756 -90
2017/05/27 51 846 -1 389
2017/05/26 53 235 +879
2017/05/25 52 356 -1 792
2017/05/24 54 148 -1 343
2017/05/23 55 491 +1 797
2017/05/22 53 694 +1 146
2017/05/21 52 548 -925
2017/05/20 53 473 +1 269
2017/05/19 52 204 +11
2017/05/18 52 193 -2 185
2017/05/17 54 378 -1 592
2017/05/16 55 970 +3 398
2017/05/15 52 572 +1 793
2017/05/14 50 779 -373
2017/05/13 51 152 +530
2017/05/12 50 622 -84
2017/05/11 50 706 -640
2017/05/10 51 346 -309
2017/05/09 51 655 +1 242
2017/05/08 50 413 +840
2017/05/07 49 573 +465
2017/05/06 49 108 +3 232
2017/05/05 45 876 +1 567
2017/05/04 44 309 -741
2017/05/03 45 050 -384
2017/05/02 45 434 +57
2017/05/01 45 377 +1 615
2017/04/30 43 762 +518
2017/04/29 43 244 +608
2017/04/28 42 636 -990
2017/04/27 43 626 -1 392
2017/04/26 45 018

WIDGET FOR YOUR SITE

DOMAINS WITH THE NEAREST RANK

Domain Rank
triviahive.com 40 493
drdo.gov.in 40 494
usercdn.com 40 495
fontys.nl 40 496
varunmultimedia.us 40 497
treasuredata.com 40 498
citydog.by 40 499
pioneer.jp 40 500
patefon.fm 40 501
luft.co.jp 40 502
blackcurranthumidifiers.site 40 503

DOMAINS WITH THE NEAREST RANK BY TLD .com

Domain Rank
voicethread.com 40 489
wingiz.com 40 491
os-templates.com 40 492
triviahive.com 40 493
usercdn.com 40 495
treasuredata.com 40 498
eacdn.com 40 505
philosophia-perennis.com 40 506
triggerinstalls.com 40 507
vpondo.com 40 508
nasaspaceflight.com 40 510